sensor_id;sensor_type;location;lat;lon;timestamp;P1;durP1;ratioP1;P2;durP2;ratioP2
12910;SDS011;6523;49.758;6.120;2023-07-20T00:00:27;2.77;;;2.00;;
12910;SDS011;6523;49.758;6.120;2023-07-20T00:02:52;2.23;;;2.03;;
12910;SDS011;6523;49.758;6.120;2023-07-20T00:05:34;3.57;;;2.10;;
12910;SDS011;6523;49.758;6.120;2023-07-20T00:08:00;2.93;;;1.80;;
12910;SDS011;6523;49.758;6.120;2023-07-20T00:10:25;2.43;;;2.23;;
12910;SDS011;6523;49.758;6.120;2023-07-20T00:12:51;2.90;;;1.93;;
12910;SDS011;6523;49.758;6.120;2023-07-20T00:15:16;3.00;;;2.10;;
12910;SDS011;6523;49.758;6.120;2023-07-20T00:17:42;3.20;;;1.90;;
12910;SDS011;6523;49.758;6.120;2023-07-20T00:20:09;2.67;;;1.87;;
12910;SDS011;6523;49.758;6.120;2023-07-20T00:22:36;2.70;;;2.03;;
12910;SDS011;6523;49.758;6.120;2023-07-20T00:25:02;3.07;;;2.50;;
12910;SDS011;6523;49.758;6.120;2023-07-20T00:27:28;2.63;;;2.10;;
12910;SDS011;6523;49.758;6.120;2023-07-20T00:29:53;4.90;;;2.37;;
12910;SDS011;6523;49.758;6.120;2023-07-20T00:32:19;2.77;;;1.80;;
12910;SDS011;6523;49.758;6.120;2023-07-20T00:34:44;3.83;;;1.97;;
12910;SDS011;6523;49.758;6.120;2023-07-20T00:37:10;2.83;;;2.20;;
12910;SDS011;6523;49.758;6.120;2023-07-20T00:39:35;3.50;;;2.10;;
12910;SDS011;6523;49.758;6.120;2023-07-20T00:42:01;3.40;;;2.03;;
12910;SDS011;6523;49.758;6.120;2023-07-20T00:44:26;2.10;;;1.90;;
12910;SDS011;6523;49.758;6.120;2023-07-20T00:46:52;4.17;;;1.83;;
12910;SDS011;6523;49.758;6.120;2023-07-20T00:49:17;3.80;;;1.90;;
12910;SDS011;6523;49.758;6.120;2023-07-20T00:51:46;5.70;;;2.27;;
12910;SDS011;6523;49.758;6.120;2023-07-20T00:54:12;3.70;;;1.90;;
12910;SDS011;6523;49.758;6.120;2023-07-20T00:56:39;2.03;;;1.90;;
12910;SDS011;6523;49.758;6.120;2023-07-20T00:59:04;5.07;;;2.37;;
12910;SDS011;6523;49.758;6.120;2023-07-20T01:01:30;3.93;;;2.17;;
12910;SDS011;6523;49.758;6.120;2023-07-20T01:03:56;2.80;;;2.37;;
12910;SDS011;6523;49.758;6.120;2023-07-20T01:06:26;2.50;;;2.23;;
12910;SDS011;6523;49.758;6.120;2023-07-20T01:09:09;2.93;;;2.10;;
12910;SDS011;6523;49.758;6.120;2023-07-20T01:14:33;4.07;;;2.10;;
12910;SDS011;6523;49.758;6.120;2023-07-20T01:16:59;3.83;;;2.40;;
12910;SDS011;6523;49.758;6.120;2023-07-20T01:19:25;3.33;;;2.33;;
12910;SDS011;6523;49.758;6.120;2023-07-20T01:21:53;2.63;;;2.10;;
12910;SDS011;6523;49.758;6.120;2023-07-20T01:24:43;2.90;;;2.40;;
12910;SDS011;6523;49.758;6.120;2023-07-20T01:27:36;3.27;;;2.30;;
12910;SDS011;6523;49.758;6.120;2023-07-20T01:32:49;2.93;;;2.53;;
12910;SDS011;6523;49.758;6.120;2023-07-20T01:35:19;3.73;;;2.47;;
12910;SDS011;6523;49.758;6.120;2023-07-20T01:37:46;2.60;;;2.40;;
12910;SDS011;6523;49.758;6.120;2023-07-20T01:40:13;4.33;;;2.30;;
12910;SDS011;6523;49.758;6.120;2023-07-20T01:42:43;3.10;;;2.23;;
12910;SDS011;6523;49.758;6.120;2023-07-20T01:45:11;5.90;;;2.10;;
12910;SDS011;6523;49.758;6.120;2023-07-20T01:47:36;2.50;;;2.23;;
12910;SDS011;6523;49.758;6.120;2023-07-20T01:50:02;3.73;;;2.37;;
12910;SDS011;6523;49.758;6.120;2023-07-20T01:52:27;3.17;;;2.43;;
12910;SDS011;6523;49.758;6.120;2023-07-20T01:54:53;2.60;;;2.27;;
12910;SDS011;6523;49.758;6.120;2023-07-20T01:57:18;4.57;;;2.60;;
12910;SDS011;6523;49.758;6.120;2023-07-20T01:59:44;3.87;;;2.70;;
12910;SDS011;6523;49.758;6.120;2023-07-20T02:02:10;4.00;;;2.50;;
12910;SDS011;6523;49.758;6.120;2023-07-20T02:04:35;3.93;;;2.73;;
12910;SDS011;6523;49.758;6.120;2023-07-20T02:07:01;2.87;;;2.37;;
12910;SDS011;6523;49.758;6.120;2023-07-20T02:09:26;4.07;;;2.47;;
12910;SDS011;6523;49.758;6.120;2023-07-20T02:11:52;4.97;;;2.53;;
12910;SDS011;6523;49.758;6.120;2023-07-20T02:14:17;3.17;;;2.30;;
12910;SDS011;6523;49.758;6.120;2023-07-20T02:16:43;2.77;;;2.37;;
12910;SDS011;6523;49.758;6.120;2023-07-20T02:19:09;4.13;;;2.40;;
12910;SDS011;6523;49.758;6.120;2023-07-20T02:21:34;3.70;;;2.37;;
12910;SDS011;6523;49.758;6.120;2023-07-20T02:24:00;3.00;;;2.67;;
12910;SDS011;6523;49.758;6.120;2023-07-20T02:26:25;3.97;;;2.53;;
12910;SDS011;6523;49.758;6.120;2023-07-20T02:28:51;3.93;;;2.60;;
12910;SDS011;6523;49.758;6.120;2023-07-20T02:31:17;3.97;;;2.50;;
12910;SDS011;6523;49.758;6.120;2023-07-20T02:33:42;3.67;;;2.90;;
12910;SDS011;6523;49.758;6.120;2023-07-20T02:36:07;4.07;;;3.10;;
12910;SDS011;6523;49.758;6.120;2023-07-20T02:38:33;3.47;;;2.77;;
12910;SDS011;6523;49.758;6.120;2023-07-20T02:40:58;3.77;;;2.90;;
12910;SDS011;6523;49.758;6.120;2023-07-20T02:43:24;5.23;;;3.00;;
12910;SDS011;6523;49.758;6.120;2023-07-20T02:45:50;3.33;;;2.60;;
12910;SDS011;6523;49.758;6.120;2023-07-20T02:48:15;3.67;;;2.67;;
12910;SDS011;6523;49.758;6.120;2023-07-20T02:50:41;3.17;;;2.87;;
12910;SDS011;6523;49.758;6.120;2023-07-20T02:53:08;5.33;;;3.30;;
12910;SDS011;6523;49.758;6.120;2023-07-20T02:55:33;5.13;;;3.27;;
12910;SDS011;6523;49.758;6.120;2023-07-20T02:57:59;5.53;;;2.67;;
12910;SDS011;6523;49.758;6.120;2023-07-20T03:00:25;4.20;;;3.07;;
12910;SDS011;6523;49.758;6.120;2023-07-20T03:02:51;3.10;;;2.80;;
12910;SDS011;6523;49.758;6.120;2023-07-20T03:05:20;3.57;;;2.90;;
12910;SDS011;6523;49.758;6.120;2023-07-20T03:07:47;3.77;;;2.87;;
12910;SDS011;6523;49.758;6.120;2023-07-20T03:10:12;3.93;;;2.60;;
12910;SDS011;6523;49.758;6.120;2023-07-20T03:12:38;4.30;;;2.43;;
12910;SDS011;6523;49.758;6.120;2023-07-20T03:15:04;3.20;;;2.50;;
12910;SDS011;6523;49.758;6.120;2023-07-20T03:17:30;3.37;;;2.47;;
12910;SDS011;6523;49.758;6.120;2023-07-20T03:19:55;4.50;;;2.77;;
12910;SDS011;6523;49.758;6.120;2023-07-20T03:22:21;3.33;;;2.60;;
12910;SDS011;6523;49.758;6.120;2023-07-20T03:24:47;4.47;;;2.40;;
12910;SDS011;6523;49.758;6.120;2023-07-20T03:27:12;3.93;;;2.23;;
12910;SDS011;6523;49.758;6.120;2023-07-20T03:29:38;3.47;;;2.70;;
12910;SDS011;6523;49.758;6.120;2023-07-20T03:32:04;2.90;;;2.60;;
12910;SDS011;6523;49.758;6.120;2023-07-20T03:34:30;4.73;;;2.33;;
12910;SDS011;6523;49.758;6.120;2023-07-20T03:36:55;3.33;;;2.40;;
12910;SDS011;6523;49.758;6.120;2023-07-20T03:39:22;2.50;;;2.30;;
12910;SDS011;6523;49.758;6.120;2023-07-20T03:41:47;3.60;;;2.70;;
12910;SDS011;6523;49.758;6.120;2023-07-20T03:44:13;3.67;;;2.80;;
12910;SDS011;6523;49.758;6.120;2023-07-20T03:46:38;3.67;;;2.60;;
12910;SDS011;6523;49.758;6.120;2023-07-20T03:49:04;3.77;;;2.80;;
12910;SDS011;6523;49.758;6.120;2023-07-20T03:51:31;4.87;;;2.83;;
12910;SDS011;6523;49.758;6.120;2023-07-20T03:53:57;5.07;;;2.47;;
12910;SDS011;6523;49.758;6.120;2023-07-20T03:56:22;3.40;;;2.63;;
12910;SDS011;6523;49.758;6.120;2023-07-20T03:58:49;3.87;;;2.50;;
12910;SDS011;6523;49.758;6.120;2023-07-20T04:01:15;3.13;;;2.30;;
12910;SDS011;6523;49.758;6.120;2023-07-20T04:03:41;4.17;;;2.53;;
12910;SDS011;6523;49.758;6.120;2023-07-20T04:06:08;3.73;;;2.40;;
12910;SDS011;6523;49.758;6.120;2023-07-20T04:08:33;5.17;;;2.60;;
12910;SDS011;6523;49.758;6.120;2023-07-20T04:11:01;3.73;;;2.60;;
12910;SDS011;6523;49.758;6.120;2023-07-20T04:13:27;3.73;;;2.87;;
12910;SDS011;6523;49.758;6.120;2023-07-20T04:15:53;4.57;;;2.70;;
12910;SDS011;6523;49.758;6.120;2023-07-20T04:18:18;2.73;;;2.47;;
12910;SDS011;6523;49.758;6.120;2023-07-20T04:20:44;4.13;;;2.60;;
12910;SDS011;6523;49.758;6.120;2023-07-20T04:23:10;2.50;;;2.30;;
12910;SDS011;6523;49.758;6.120;2023-07-20T04:25:35;3.27;;;2.50;;
12910;SDS011;6523;49.758;6.120;2023-07-20T04:28:04;5.20;;;3.00;;
12910;SDS011;6523;49.758;6.120;2023-07-20T04:30:33;3.10;;;2.80;;
12910;SDS011;6523;49.758;6.120;2023-07-20T04:33:00;5.67;;;3.10;;
12910;SDS011;6523;49.758;6.120;2023-07-20T04:35:45;4.87;;;2.93;;
12910;SDS011;6523;49.758;6.120;2023-07-20T04:38:17;2.97;;;2.53;;
12910;SDS011;6523;49.758;6.120;2023-07-20T04:40:44;3.17;;;2.67;;
12910;SDS011;6523;49.758;6.120;2023-07-20T04:43:10;3.90;;;2.83;;
12910;SDS011;6523;49.758;6.120;2023-07-20T04:45:36;3.63;;;2.63;;
12910;SDS011;6523;49.758;6.120;2023-07-20T04:48:01;3.80;;;2.87;;
12910;SDS011;6523;49.758;6.120;2023-07-20T04:50:27;3.63;;;2.73;;
12910;SDS011;6523;49.758;6.120;2023-07-20T04:52:53;5.40;;;2.87;;
12910;SDS011;6523;49.758;6.120;2023-07-20T04:55:18;4.13;;;3.10;;
12910;SDS011;6523;49.758;6.120;2023-07-20T04:57:44;4.37;;;2.80;;
12910;SDS011;6523;49.758;6.120;2023-07-20T05:00:10;3.77;;;2.40;;
12910;SDS011;6523;49.758;6.120;2023-07-20T05:02:38;3.87;;;2.73;;
12910;SDS011;6523;49.758;6.120;2023-07-20T05:05:03;4.10;;;2.87;;
12910;SDS011;6523;49.758;6.120;2023-07-20T05:07:31;4.13;;;2.67;;
12910;SDS011;6523;49.758;6.120;2023-07-20T05:09:57;3.80;;;2.67;;
12910;SDS011;6523;49.758;6.120;2023-07-20T05:12:22;4.20;;;2.80;;
12910;SDS011;6523;49.758;6.120;2023-07-20T05:14:48;4.47;;;2.90;;
12910;SDS011;6523;49.758;6.120;2023-07-20T05:17:13;3.93;;;3.00;;
12910;SDS011;6523;49.758;6.120;2023-07-20T05:19:39;4.40;;;3.40;;
12910;SDS011;6523;49.758;6.120;2023-07-20T05:22:04;7.63;;;3.63;;
12910;SDS011;6523;49.758;6.120;2023-07-20T05:24:30;4.37;;;3.17;;
12910;SDS011;6523;49.758;6.120;2023-07-20T05:26:56;3.93;;;3.30;;
12910;SDS011;6523;49.758;6.120;2023-07-20T05:29:23;4.70;;;3.00;;
12910;SDS011;6523;49.758;6.120;2023-07-20T05:31:49;3.27;;;2.97;;
12910;SDS011;6523;49.758;6.120;2023-07-20T05:34:14;3.87;;;3.40;;
12910;SDS011;6523;49.758;6.120;2023-07-20T05:36:52;5.57;;;3.17;;
12910;SDS011;6523;49.758;6.120;2023-07-20T05:39:17;5.53;;;3.73;;
12910;SDS011;6523;49.758;6.120;2023-07-20T05:41:43;4.10;;;3.00;;
12910;SDS011;6523;49.758;6.120;2023-07-20T05:44:08;5.00;;;3.23;;
12910;SDS011;6523;49.758;6.120;2023-07-20T05:46:34;7.83;;;3.80;;
12910;SDS011;6523;49.758;6.120;2023-07-20T05:49:00;4.40;;;3.27;;
12910;SDS011;6523;49.758;6.120;2023-07-20T05:51:26;7.03;;;3.87;;
12910;SDS011;6523;49.758;6.120;2023-07-20T05:53:52;6.20;;;3.73;;
12910;SDS011;6523;49.758;6.120;2023-07-20T05:56:17;5.03;;;3.77;;
12910;SDS011;6523;49.758;6.120;2023-07-20T05:58:43;7.17;;;4.20;;
12910;SDS011;6523;49.758;6.120;2023-07-20T06:01:09;5.47;;;4.07;;
12910;SDS011;6523;49.758;6.120;2023-07-20T06:03:34;7.47;;;4.10;;
12910;SDS011;6523;49.758;6.120;2023-07-20T06:06:00;6.03;;;3.83;;
12910;SDS011;6523;49.758;6.120;2023-07-20T06:08:27;4.40;;;3.67;;
12910;SDS011;6523;49.758;6.120;2023-07-20T06:10:53;5.37;;;4.23;;
12910;SDS011;6523;49.758;6.120;2023-07-20T06:13:19;6.63;;;4.27;;
12910;SDS011;6523;49.758;6.120;2023-07-20T06:15:45;5.63;;;4.30;;
12910;SDS011;6523;49.758;6.120;2023-07-20T06:18:12;6.53;;;4.07;;
12910;SDS011;6523;49.758;6.120;2023-07-20T06:20:38;5.77;;;4.60;;
12910;SDS011;6523;49.758;6.120;2023-07-20T06:23:03;5.60;;;4.00;;
12910;SDS011;6523;49.758;6.120;2023-07-20T06:25:29;7.03;;;4.70;;
12910;SDS011;6523;49.758;6.120;2023-07-20T06:27:55;7.33;;;4.43;;
12910;SDS011;6523;49.758;6.120;2023-07-20T06:30:21;7.03;;;4.70;;
12910;SDS011;6523;49.758;6.120;2023-07-20T06:32:47;8.53;;;5.53;;
12910;SDS011;6523;49.758;6.120;2023-07-20T06:35:13;8.63;;;5.00;;
12910;SDS011;6523;49.758;6.120;2023-07-20T06:37:38;7.63;;;5.40;;
12910;SDS011;6523;49.758;6.120;2023-07-20T06:40:04;7.20;;;5.13;;
12910;SDS011;6523;49.758;6.120;2023-07-20T06:42:30;6.57;;;4.77;;
12910;SDS011;6523;49.758;6.120;2023-07-20T06:44:57;7.90;;;4.90;;
12910;SDS011;6523;49.758;6.120;2023-07-20T06:47:22;8.90;;;5.03;;
12910;SDS011;6523;49.758;6.120;2023-07-20T06:49:48;8.00;;;5.17;;
12910;SDS011;6523;49.758;6.120;2023-07-20T06:52:14;9.37;;;5.03;;
12910;SDS011;6523;49.758;6.120;2023-07-20T06:54:40;7.73;;;5.13;;
12910;SDS011;6523;49.758;6.120;2023-07-20T06:57:05;7.50;;;5.60;;
12910;SDS011;6523;49.758;6.120;2023-07-20T06:59:31;9.73;;;5.20;;
12910;SDS011;6523;49.758;6.120;2023-07-20T07:01:56;6.07;;;4.23;;
12910;SDS011;6523;49.758;6.120;2023-07-20T07:04:22;7.20;;;4.30;;
12910;SDS011;6523;49.758;6.120;2023-07-20T07:06:47;7.77;;;4.97;;
12910;SDS011;6523;49.758;6.120;2023-07-20T07:09:13;6.87;;;4.80;;
12910;SDS011;6523;49.758;6.120;2023-07-20T07:11:39;7.63;;;4.63;;
12910;SDS011;6523;49.758;6.120;2023-07-20T07:14:05;4.40;;;3.97;;
12910;SDS011;6523;49.758;6.120;2023-07-20T07:16:30;6.17;;;4.53;;
12910;SDS011;6523;49.758;6.120;2023-07-20T07:18:56;6.60;;;4.90;;
12910;SDS011;6523;49.758;6.120;2023-07-20T07:21:21;5.57;;;4.37;;
12910;SDS011;6523;49.758;6.120;2023-07-20T07:23:47;6.43;;;4.27;;
12910;SDS011;6523;49.758;6.120;2023-07-20T07:26:13;5.47;;;4.70;;
12910;SDS011;6523;49.758;6.120;2023-07-20T07:28:38;5.10;;;4.50;;
12910;SDS011;6523;49.758;6.120;2023-07-20T07:31:04;9.07;;;4.80;;
12910;SDS011;6523;49.758;6.120;2023-07-20T07:33:31;6.73;;;4.97;;
12910;SDS011;6523;49.758;6.120;2023-07-20T07:35:57;4.90;;;4.33;;
12910;SDS011;6523;49.758;6.120;2023-07-20T07:38:22;5.23;;;4.03;;
12910;SDS011;6523;49.758;6.120;2023-07-20T07:40:48;7.20;;;4.63;;
12910;SDS011;6523;49.758;6.120;2023-07-20T07:43:14;7.50;;;3.90;;
12910;SDS011;6523;49.758;6.120;2023-07-20T07:45:39;8.53;;;4.17;;
12910;SDS011;6523;49.758;6.120;2023-07-20T07:48:05;7.03;;;3.90;;
12910;SDS011;6523;49.758;6.120;2023-07-20T07:50:32;4.90;;;4.13;;
12910;SDS011;6523;49.758;6.120;2023-07-20T07:52:58;5.47;;;4.20;;
12910;SDS011;6523;49.758;6.120;2023-07-20T07:55:24;5.10;;;4.13;;
12910;SDS011;6523;49.758;6.120;2023-07-20T07:57:51;8.47;;;4.97;;
12910;SDS011;6523;49.758;6.120;2023-07-20T08:00:17;7.47;;;4.40;;
12910;SDS011;6523;49.758;6.120;2023-07-20T08:02:44;8.43;;;5.03;;
12910;SDS011;6523;49.758;6.120;2023-07-20T08:05:11;6.03;;;4.63;;
12910;SDS011;6523;49.758;6.120;2023-07-20T08:07:37;8.77;;;4.73;;
12910;SDS011;6523;49.758;6.120;2023-07-20T08:10:03;7.17;;;4.97;;
12910;SDS011;6523;49.758;6.120;2023-07-20T08:12:29;7.03;;;4.47;;
12910;SDS011;6523;49.758;6.120;2023-07-20T08:14:55;7.50;;;4.90;;
12910;SDS011;6523;49.758;6.120;2023-07-20T08:17:21;9.57;;;4.67;;
12910;SDS011;6523;49.758;6.120;2023-07-20T08:19:46;7.77;;;4.33;;
12910;SDS011;6523;49.758;6.120;2023-07-20T08:22:12;6.23;;;4.40;;
12910;SDS011;6523;49.758;6.120;2023-07-20T08:24:40;7.27;;;4.57;;
12910;SDS011;6523;49.758;6.120;2023-07-20T08:27:07;8.03;;;4.53;;
12910;SDS011;6523;49.758;6.120;2023-07-20T08:29:33;6.57;;;4.57;;
12910;SDS011;6523;49.758;6.120;2023-07-20T08:31:59;9.13;;;4.50;;
12910;SDS011;6523;49.758;6.120;2023-07-20T08:34:25;6.90;;;4.67;;
12910;SDS011;6523;49.758;6.120;2023-07-20T08:36:50;7.37;;;4.93;;
12910;SDS011;6523;49.758;6.120;2023-07-20T08:39:16;5.07;;;4.00;;
12910;SDS011;6523;49.758;6.120;2023-07-20T08:41:42;9.73;;;4.27;;
12910;SDS011;6523;49.758;6.120;2023-07-20T08:44:08;8.27;;;3.80;;
12910;SDS011;6523;49.758;6.120;2023-07-20T08:46:35;6.83;;;4.33;;
12910;SDS011;6523;49.758;6.120;2023-07-20T08:49:03;6.40;;;3.90;;
12910;SDS011;6523;49.758;6.120;2023-07-20T08:51:29;6.40;;;3.93;;
12910;SDS011;6523;49.758;6.120;2023-07-20T08:53:55;7.27;;;4.00;;
12910;SDS011;6523;49.758;6.120;2023-07-20T08:56:23;6.20;;;3.83;;
12910;SDS011;6523;49.758;6.120;2023-07-20T08:58:54;5.63;;;4.07;;
12910;SDS011;6523;49.758;6.120;2023-07-20T09:01:20;4.67;;;3.90;;
12910;SDS011;6523;49.758;6.120;2023-07-20T09:03:47;4.93;;;3.70;;
12910;SDS011;6523;49.758;6.120;2023-07-20T09:06:13;7.03;;;4.20;;
12910;SDS011;6523;49.758;6.120;2023-07-20T09:08:42;5.43;;;3.80;;
12910;SDS011;6523;49.758;6.120;2023-07-20T09:11:11;4.87;;;3.47;;
12910;SDS011;6523;49.758;6.120;2023-07-20T09:13:38;5.30;;;4.20;;
12910;SDS011;6523;49.758;6.120;2023-07-20T09:16:04;5.27;;;3.43;;
12910;SDS011;6523;49.758;6.120;2023-07-20T09:18:30;5.00;;;3.40;;
12910;SDS011;6523;49.758;6.120;2023-07-20T09:21:01;7.23;;;3.60;;
12910;SDS011;6523;49.758;6.120;2023-07-20T09:23:37;3.93;;;3.50;;
12910;SDS011;6523;49.758;6.120;2023-07-20T09:26:09;4.57;;;3.10;;
12910;SDS011;6523;49.758;6.120;2023-07-20T09:28:49;5.60;;;3.30;;
12910;SDS011;6523;49.758;6.120;2023-07-20T09:31:17;4.43;;;3.40;;
12910;SDS011;6523;49.758;6.120;2023-07-20T09:33:43;5.83;;;3.23;;
12910;SDS011;6523;49.758;6.120;2023-07-20T09:36:10;5.50;;;3.13;;
12910;SDS011;6523;49.758;6.120;2023-07-20T09:38:36;4.57;;;2.80;;
12910;SDS011;6523;49.758;6.120;2023-07-20T09:41:02;4.27;;;3.10;;
12910;SDS011;6523;49.758;6.120;2023-07-20T09:43:31;4.23;;;2.70;;
12910;SDS011;6523;49.758;6.120;2023-07-20T09:45:58;3.27;;;2.73;;
12910;SDS011;6523;49.758;6.120;2023-07-20T09:48:24;4.20;;;3.63;;
12910;SDS011;6523;49.758;6.120;2023-07-20T09:50:51;6.37;;;3.63;;
12910;SDS011;6523;49.758;6.120;2023-07-20T09:53:18;4.70;;;3.07;;
12910;SDS011;6523;49.758;6.120;2023-07-20T09:55:44;7.23;;;3.70;;
12910;SDS011;6523;49.758;6.120;2023-07-20T09:58:11;4.80;;;2.60;;
12910;SDS011;6523;49.758;6.120;2023-07-20T10:00:37;2.60;;;2.40;;
12910;SDS011;6523;49.758;6.120;2023-07-20T10:03:04;4.80;;;2.90;;
12910;SDS011;6523;49.758;6.120;2023-07-20T10:05:34;5.97;;;2.50;;
12910;SDS011;6523;49.758;6.120;2023-07-20T10:08:04;3.63;;;2.70;;
12910;SDS011;6523;49.758;6.120;2023-07-20T10:10:33;3.27;;;2.97;;
12910;SDS011;6523;49.758;6.120;2023-07-20T10:13:00;3.67;;;2.40;;
12910;SDS011;6523;49.758;6.120;2023-07-20T10:15:37;5.43;;;2.50;;
12910;SDS011;6523;49.758;6.120;2023-07-20T10:21:00;5.23;;;2.60;;
12910;SDS011;6523;49.758;6.120;2023-07-20T10:23:27;2.80;;;2.13;;
12910;SDS011;6523;49.758;6.120;2023-07-20T10:25:54;3.10;;;2.37;;
12910;SDS011;6523;49.758;6.120;2023-07-20T10:28:20;3.77;;;2.30;;
12910;SDS011;6523;49.758;6.120;2023-07-20T10:30:48;3.47;;;2.30;;
12910;SDS011;6523;49.758;6.120;2023-07-20T10:33:15;2.30;;;2.10;;
12910;SDS011;6523;49.758;6.120;2023-07-20T10:35:55;2.53;;;2.30;;
12910;SDS011;6523;49.758;6.120;2023-07-20T10:41:17;3.03;;;2.40;;
12910;SDS011;6523;49.758;6.120;2023-07-20T10:43:44;2.60;;;2.10;;
12910;SDS011;6523;49.758;6.120;2023-07-20T10:46:13;2.40;;;1.93;;
12910;SDS011;6523;49.758;6.120;2023-07-20T10:51:27;2.20;;;2.00;;
12910;SDS011;6523;49.758;6.120;2023-07-20T10:53:54;2.33;;;2.10;;
12910;SDS011;6523;49.758;6.120;2023-07-20T10:56:25;2.23;;;2.03;;
12910;SDS011;6523;49.758;6.120;2023-07-20T10:58:57;2.13;;;1.93;;
12910;SDS011;6523;49.758;6.120;2023-07-20T11:01:27;1.93;;;1.80;;
12910;SDS011;6523;49.758;6.120;2023-07-20T11:03:56;2.67;;;1.97;;
12910;SDS011;6523;49.758;6.120;2023-07-20T11:09:09;2.07;;;1.87;;
12910;SDS011;6523;49.758;6.120;2023-07-20T11:11:37;2.13;;;1.83;;
12910;SDS011;6523;49.758;6.120;2023-07-20T11:14:04;1.97;;;1.87;;
12910;SDS011;6523;49.758;6.120;2023-07-20T11:16:44;2.77;;;2.20;;
12910;SDS011;6523;49.758;6.120;2023-07-20T11:19:21;3.20;;;2.33;;
12910;SDS011;6523;49.758;6.120;2023-07-20T11:21:51;1.90;;;1.80;;
12910;SDS011;6523;49.758;6.120;2023-07-20T11:24:18;3.27;;;1.80;;
12910;SDS011;6523;49.758;6.120;2023-07-20T11:26:48;2.27;;;1.80;;
12910;SDS011;6523;49.758;6.120;2023-07-20T11:29:16;2.30;;;1.70;;
12910;SDS011;6523;49.758;6.120;2023-07-20T11:31:42;2.60;;;2.37;;
12910;SDS011;6523;49.758;6.120;2023-07-20T11:34:10;2.07;;;1.80;;
12910;SDS011;6523;49.758;6.120;2023-07-20T11:36:38;3.67;;;1.93;;
12910;SDS011;6523;49.758;6.120;2023-07-20T11:39:12;1.70;;;1.57;;
12910;SDS011;6523;49.758;6.120;2023-07-20T11:41:41;1.93;;;1.53;;
12910;SDS011;6523;49.758;6.120;2023-07-20T11:44:09;3.13;;;1.60;;
12910;SDS011;6523;49.758;6.120;2023-07-20T11:46:38;2.43;;;1.87;;
12910;SDS011;6523;49.758;6.120;2023-07-20T11:49:04;1.77;;;1.63;;
12910;SDS011;6523;49.758;6.120;2023-07-20T11:51:30;9.13;;;2.03;;
12910;SDS011;6523;49.758;6.120;2023-07-20T11:53:57;2.07;;;1.60;;
12910;SDS011;6523;49.758;6.120;2023-07-20T11:56:24;2.83;;;1.77;;
12910;SDS011;6523;49.758;6.120;2023-07-20T11:58:50;4.57;;;1.70;;
12910;SDS011;6523;49.758;6.120;2023-07-20T12:01:19;2.77;;;1.80;;
12910;SDS011;6523;49.758;6.120;2023-07-20T12:03:45;1.87;;;1.40;;
12910;SDS011;6523;49.758;6.120;2023-07-20T12:06:13;1.73;;;1.63;;
12910;SDS011;6523;49.758;6.120;2023-07-20T12:08:39;1.63;;;1.50;;
12910;SDS011;6523;49.758;6.120;2023-07-20T12:11:06;1.90;;;1.80;;
12910;SDS011;6523;49.758;6.120;2023-07-20T12:13:43;1.73;;;1.30;;
12910;SDS011;6523;49.758;6.120;2023-07-20T12:16:15;1.83;;;1.40;;
12910;SDS011;6523;49.758;6.120;2023-07-20T12:18:42;2.10;;;1.40;;
12910;SDS011;6523;49.758;6.120;2023-07-20T12:21:08;1.77;;;1.30;;
12910;SDS011;6523;49.758;6.120;2023-07-20T12:23:38;1.60;;;1.47;;
12910;SDS011;6523;49.758;6.120;2023-07-20T12:26:08;1.87;;;1.43;;
12910;SDS011;6523;49.758;6.120;2023-07-20T12:28:40;1.60;;;1.50;;
12910;SDS011;6523;49.758;6.120;2023-07-20T12:31:06;1.63;;;1.37;;
12910;SDS011;6523;49.758;6.120;2023-07-20T12:33:36;1.33;;;1.23;;
12910;SDS011;6523;49.758;6.120;2023-07-20T12:36:03;1.80;;;1.10;;
12910;SDS011;6523;49.758;6.120;2023-07-20T12:38:29;2.13;;;1.10;;
12910;SDS011;6523;49.758;6.120;2023-07-20T12:40:55;1.20;;;1.10;;
12910;SDS011;6523;49.758;6.120;2023-07-20T12:43:22;1.50;;;1.33;;
12910;SDS011;6523;49.758;6.120;2023-07-20T12:45:47;0.93;;;0.93;;
12910;SDS011;6523;49.758;6.120;2023-07-20T12:48:13;1.53;;;0.90;;
12910;SDS011;6523;49.758;6.120;2023-07-20T12:50:38;2.23;;;1.00;;
12910;SDS011;6523;49.758;6.120;2023-07-20T12:53:04;1.90;;;1.03;;
12910;SDS011;6523;49.758;6.120;2023-07-20T12:55:29;1.63;;;1.17;;
12910;SDS011;6523;49.758;6.120;2023-07-20T12:57:55;1.20;;;1.10;;
12910;SDS011;6523;49.758;6.120;2023-07-20T13:00:20;1.63;;;1.20;;
12910;SDS011;6523;49.758;6.120;2023-07-20T13:02:49;0.90;;;0.90;;
12910;SDS011;6523;49.758;6.120;2023-07-20T13:05:15;3.63;;;1.10;;
12910;SDS011;6523;49.758;6.120;2023-07-20T13:07:41;1.70;;;1.07;;
12910;SDS011;6523;49.758;6.120;2023-07-20T13:10:07;0.90;;;0.90;;
12910;SDS011;6523;49.758;6.120;2023-07-20T13:12:34;1.23;;;0.87;;
12910;SDS011;6523;49.758;6.120;2023-07-20T13:15:01;0.97;;;0.90;;
12910;SDS011;6523;49.758;6.120;2023-07-20T13:17:30;1.30;;;1.20;;
12910;SDS011;6523;49.758;6.120;2023-07-20T13:19:59;1.10;;;1.00;;
12910;SDS011;6523;49.758;6.120;2023-07-20T13:22:25;1.10;;;1.00;;
12910;SDS011;6523;49.758;6.120;2023-07-20T13:24:51;1.50;;;1.00;;
12910;SDS011;6523;49.758;6.120;2023-07-20T13:27:17;1.03;;;0.93;;
12910;SDS011;6523;49.758;6.120;2023-07-20T13:29:43;1.47;;;1.07;;
12910;SDS011;6523;49.758;6.120;2023-07-20T13:32:10;2.13;;;1.00;;
12910;SDS011;6523;49.758;6.120;2023-07-20T13:34:38;1.90;;;1.00;;
12910;SDS011;6523;49.758;6.120;2023-07-20T13:37:04;1.27;;;1.10;;
12910;SDS011;6523;49.758;6.120;2023-07-20T13:39:30;1.47;;;1.00;;
12910;SDS011;6523;49.758;6.120;2023-07-20T13:41:55;1.10;;;1.00;;
12910;SDS011;6523;49.758;6.120;2023-07-20T13:44:21;2.57;;;1.10;;
12910;SDS011;6523;49.758;6.120;2023-07-20T13:46:47;1.00;;;1.00;;
12910;SDS011;6523;49.758;6.120;2023-07-20T13:49:13;3.07;;;1.13;;
12910;SDS011;6523;49.758;6.120;2023-07-20T13:51:39;1.17;;;1.07;;
12910;SDS011;6523;49.758;6.120;2023-07-20T13:54:06;1.90;;;1.07;;
12910;SDS011;6523;49.758;6.120;2023-07-20T13:56:31;1.20;;;1.00;;
12910;SDS011;6523;49.758;6.120;2023-07-20T13:58:57;1.77;;;1.10;;
12910;SDS011;6523;49.758;6.120;2023-07-20T14:01:22;1.20;;;1.10;;
12910;SDS011;6523;49.758;6.120;2023-07-20T14:03:49;1.10;;;1.10;;
12910;SDS011;6523;49.758;6.120;2023-07-20T14:06:15;2.80;;;1.03;;
12910;SDS011;6523;49.758;6.120;2023-07-20T14:08:41;1.10;;;1.00;;
12910;SDS011;6523;49.758;6.120;2023-07-20T14:11:07;3.17;;;1.13;;
12910;SDS011;6523;49.758;6.120;2023-07-20T14:13:32;1.77;;;1.00;;
12910;SDS011;6523;49.758;6.120;2023-07-20T14:15:58;1.27;;;0.93;;
12910;SDS011;6523;49.758;6.120;2023-07-20T14:18:24;1.23;;;0.80;;
12910;SDS011;6523;49.758;6.120;2023-07-20T14:20:49;0.83;;;0.83;;
12910;SDS011;6523;49.758;6.120;2023-07-20T14:23:15;2.80;;;1.10;;
12910;SDS011;6523;49.758;6.120;2023-07-20T14:25:40;1.67;;;1.03;;
12910;SDS011;6523;49.758;6.120;2023-07-20T14:28:07;1.00;;;1.00;;
12910;SDS011;6523;49.758;6.120;2023-07-20T14:30:32;1.00;;;0.90;;
12910;SDS011;6523;49.758;6.120;2023-07-20T14:32:58;0.80;;;0.80;;
12910;SDS011;6523;49.758;6.120;2023-07-20T14:35:23;0.90;;;0.90;;
12910;SDS011;6523;49.758;6.120;2023-07-20T14:37:49;1.70;;;1.07;;
12910;SDS011;6523;49.758;6.120;2023-07-20T14:40:15;1.80;;;0.90;;
12910;SDS011;6523;49.758;6.120;2023-07-20T14:42:41;1.10;;;1.00;;
12910;SDS011;6523;49.758;6.120;2023-07-20T14:45:06;1.20;;;1.10;;
12910;SDS011;6523;49.758;6.120;2023-07-20T14:47:33;1.00;;;0.90;;
12910;SDS011;6523;49.758;6.120;2023-07-20T14:50:00;1.63;;;0.80;;
12910;SDS011;6523;49.758;6.120;2023-07-20T14:52:27;1.63;;;1.00;;
12910;SDS011;6523;49.758;6.120;2023-07-20T14:54:54;1.10;;;1.00;;
12910;SDS011;6523;49.758;6.120;2023-07-20T14:57:20;1.87;;;1.20;;
12910;SDS011;6523;49.758;6.120;2023-07-20T14:59:48;1.00;;;1.00;;
12910;SDS011;6523;49.758;6.120;2023-07-20T15:02:14;1.63;;;1.03;;
12910;SDS011;6523;49.758;6.120;2023-07-20T15:04:46;1.43;;;1.07;;
12910;SDS011;6523;49.758;6.120;2023-07-20T15:07:16;1.13;;;1.00;;
12910;SDS011;6523;49.758;6.120;2023-07-20T15:09:43;0.90;;;0.90;;
12910;SDS011;6523;49.758;6.120;2023-07-20T15:12:09;0.80;;;0.80;;
12910;SDS011;6523;49.758;6.120;2023-07-20T15:14:35;1.00;;;1.00;;